sensor_id;sensor_type;location;lat;lon;timestamp;P1;durP1;ratioP1;P2;durP2;ratioP2
50345;SDS011;36248;37.258;-121.918;2022-08-21T00:01:09;2.87;;;2.87;;
50345;SDS011;36248;37.258;-121.918;2022-08-21T00:03:44;2.92;;;2.92;;
50345;SDS011;36248;37.258;-121.918;2022-08-21T00:06:15;3.08;;;3.08;;
50345;SDS011;36248;37.258;-121.918;2022-08-21T00:08:45;3.55;;;3.55;;
50345;SDS011;36248;37.258;-121.918;2022-08-21T00:11:14;3.46;;;3.46;;
50345;SDS011;36248;37.258;-121.918;2022-08-21T00:13:44;3.11;;;3.11;;
50345;SDS011;36248;37.258;-121.918;2022-08-21T00:16:14;3.13;;;3.13;;
50345;SDS011;36248;37.258;-121.918;2022-08-21T00:18:46;3.47;;;3.47;;
50345;SDS011;36248;37.258;-121.918;2022-08-21T00:21:15;3.05;;;3.05;;
50345;SDS011;36248;37.258;-121.918;2022-08-21T00:23:44;2.95;;;2.95;;
50345;SDS011;36248;37.258;-121.918;2022-08-21T00:26:14;3.23;;;3.23;;
50345;SDS011;36248;37.258;-121.918;2022-08-21T00:28:43;3.32;;;3.32;;
50345;SDS011;36248;37.258;-121.918;2022-08-21T00:31:14;3.39;;;3.39;;
50345;SDS011;36248;37.258;-121.918;2022-08-21T00:33:46;3.20;;;3.20;;
50345;SDS011;36248;37.258;-121.918;2022-08-21T00:36:16;3.23;;;3.23;;
50345;SDS011;36248;37.258;-121.918;2022-08-21T00:38:46;3.15;;;3.15;;
50345;SDS011;36248;37.258;-121.918;2022-08-21T00:41:16;3.03;;;3.03;;
50345;SDS011;36248;37.258;-121.918;2022-08-21T00:43:45;3.06;;;3.06;;
50345;SDS011;36248;37.258;-121.918;2022-08-21T00:46:15;3.42;;;3.41;;
50345;SDS011;36248;37.258;-121.918;2022-08-21T00:48:47;3.18;;;3.17;;
50345;SDS011;36248;37.258;-121.918;2022-08-21T00:51:18;3.03;;;3.01;;
50345;SDS011;36248;37.258;-121.918;2022-08-21T00:53:53;3.08;;;3.08;;
50345;SDS011;36248;37.258;-121.918;2022-08-21T00:56:25;2.93;;;2.93;;
50345;SDS011;36248;37.258;-121.918;2022-08-21T00:58:55;3.32;;;3.31;;
50345;SDS011;36248;37.258;-121.918;2022-08-21T01:01:26;3.10;;;3.09;;
50345;SDS011;36248;37.258;-121.918;2022-08-21T01:03:59;2.97;;;2.97;;
50345;SDS011;36248;37.258;-121.918;2022-08-21T01:06:29;3.05;;;3.05;;
50345;SDS011;36248;37.258;-121.918;2022-08-21T01:09:01;3.31;;;3.31;;
50345;SDS011;36248;37.258;-121.918;2022-08-21T01:11:32;3.01;;;3.01;;
50345;SDS011;36248;37.258;-121.918;2022-08-21T01:14:01;3.10;;;3.10;;
50345;SDS011;36248;37.258;-121.918;2022-08-21T01:16:31;2.97;;;2.97;;
50345;SDS011;36248;37.258;-121.918;2022-08-21T01:19:04;3.29;;;3.29;;
50345;SDS011;36248;37.258;-121.918;2022-08-21T01:21:37;3.15;;;3.15;;
50345;SDS011;36248;37.258;-121.918;2022-08-21T01:24:07;3.18;;;3.18;;
50345;SDS011;36248;37.258;-121.918;2022-08-21T01:26:36;2.98;;;2.98;;
50345;SDS011;36248;37.258;-121.918;2022-08-21T01:29:07;3.33;;;3.31;;
50345;SDS011;36248;37.258;-121.918;2022-08-21T01:31:43;3.10;;;3.09;;
50345;SDS011;36248;37.258;-121.918;2022-08-21T01:34:13;3.00;;;2.99;;
50345;SDS011;36248;37.258;-121.918;2022-08-21T01:36:45;3.09;;;3.08;;
50345;SDS011;36248;37.258;-121.918;2022-08-21T01:39:16;3.14;;;3.13;;
50345;SDS011;36248;37.258;-121.918;2022-08-21T01:41:45;3.08;;;3.08;;
50345;SDS011;36248;37.258;-121.918;2022-08-21T01:44:14;2.89;;;2.89;;
50345;SDS011;36248;37.258;-121.918;2022-08-21T01:46:44;2.88;;;2.88;;
50345;SDS011;36248;37.258;-121.918;2022-08-21T01:49:14;3.28;;;3.28;;
50345;SDS011;36248;37.258;-121.918;2022-08-21T01:51:46;3.23;;;3.22;;
50345;SDS011;36248;37.258;-121.918;2022-08-21T01:54:16;3.06;;;3.06;;
50345;SDS011;36248;37.258;-121.918;2022-08-21T01:56:47;3.07;;;3.07;;
50345;SDS011;36248;37.258;-121.918;2022-08-21T01:59:19;3.11;;;3.11;;
50345;SDS011;36248;37.258;-121.918;2022-08-21T02:01:49;3.15;;;3.15;;
50345;SDS011;36248;37.258;-121.918;2022-08-21T02:04:19;3.07;;;3.07;;
50345;SDS011;36248;37.258;-121.918;2022-08-21T02:06:52;3.19;;;3.19;;
50345;SDS011;36248;37.258;-121.918;2022-08-21T02:09:21;3.10;;;3.10;;
50345;SDS011;36248;37.258;-121.918;2022-08-21T02:11:51;3.10;;;3.09;;
50345;SDS011;36248;37.258;-121.918;2022-08-21T02:14:22;3.21;;;3.21;;
50345;SDS011;36248;37.258;-121.918;2022-08-21T02:16:51;3.08;;;3.08;;
50345;SDS011;36248;37.258;-121.918;2022-08-21T02:19:21;3.18;;;3.18;;
50345;SDS011;36248;37.258;-121.918;2022-08-21T02:21:53;3.52;;;3.52;;
50345;SDS011;36248;37.258;-121.918;2022-08-21T02:24:22;3.31;;;3.31;;
50345;SDS011;36248;37.258;-121.918;2022-08-21T02:26:52;3.08;;;3.08;;
50345;SDS011;36248;37.258;-121.918;2022-08-21T02:29:22;3.03;;;3.03;;
50345;SDS011;36248;37.258;-121.918;2022-08-21T02:31:54;3.17;;;3.17;;
50345;SDS011;36248;37.258;-121.918;2022-08-21T02:34:24;3.15;;;3.15;;
50345;SDS011;36248;37.258;-121.918;2022-08-21T02:36:56;3.45;;;3.45;;
50345;SDS011;36248;37.258;-121.918;2022-08-21T02:39:25;3.35;;;3.35;;
50345;SDS011;36248;37.258;-121.918;2022-08-21T02:41:55;3.34;;;3.34;;
50345;SDS011;36248;37.258;-121.918;2022-08-21T02:44:26;2.99;;;2.98;;
50345;SDS011;36248;37.258;-121.918;2022-08-21T02:46:54;3.27;;;3.27;;
50345;SDS011;36248;37.258;-121.918;2022-08-21T02:49:25;3.18;;;3.18;;
50345;SDS011;36248;37.258;-121.918;2022-08-21T02:51:57;3.18;;;3.18;;
50345;SDS011;36248;37.258;-121.918;2022-08-21T02:54:27;3.26;;;3.26;;
50345;SDS011;36248;37.258;-121.918;2022-08-21T02:56:56;3.59;;;3.59;;
50345;SDS011;36248;37.258;-121.918;2022-08-21T02:59:26;3.88;;;3.87;;
50345;SDS011;36248;37.258;-121.918;2022-08-21T03:01:59;3.96;;;3.96;;
50345;SDS011;36248;37.258;-121.918;2022-08-21T03:04:28;4.11;;;4.11;;
50345;SDS011;36248;37.258;-121.918;2022-08-21T03:07:01;3.89;;;3.89;;
50345;SDS011;36248;37.258;-121.918;2022-08-21T03:09:31;3.88;;;3.88;;
50345;SDS011;36248;37.258;-121.918;2022-08-21T03:12:03;3.98;;;3.98;;
50345;SDS011;36248;37.258;-121.918;2022-08-21T03:14:33;4.01;;;4.01;;
50345;SDS011;36248;37.258;-121.918;2022-08-21T03:17:04;4.12;;;4.12;;
50345;SDS011;36248;37.258;-121.918;2022-08-21T03:19:33;3.90;;;3.90;;
50345;SDS011;36248;37.258;-121.918;2022-08-21T03:22:06;3.98;;;3.98;;
50345;SDS011;36248;37.258;-121.918;2022-08-21T03:24:36;3.96;;;3.96;;
50345;SDS011;36248;37.258;-121.918;2022-08-21T03:27:05;4.16;;;4.15;;
50345;SDS011;36248;37.258;-121.918;2022-08-21T03:29:35;3.97;;;3.97;;
50345;SDS011;36248;37.258;-121.918;2022-08-21T03:32:05;3.98;;;3.98;;
50345;SDS011;36248;37.258;-121.918;2022-08-21T03:34:35;3.55;;;3.55;;
50345;SDS011;36248;37.258;-121.918;2022-08-21T03:37:08;3.36;;;3.35;;
50345;SDS011;36248;37.258;-121.918;2022-08-21T03:39:38;2.94;;;2.94;;
50345;SDS011;36248;37.258;-121.918;2022-08-21T03:42:07;3.20;;;3.20;;
50345;SDS011;36248;37.258;-121.918;2022-08-21T03:44:37;3.13;;;3.11;;
50345;SDS011;36248;37.258;-121.918;2022-08-21T03:47:07;3.15;;;3.12;;
50345;SDS011;36248;37.258;-121.918;2022-08-21T03:49:37;2.92;;;2.90;;
50345;SDS011;36248;37.258;-121.918;2022-08-21T03:52:10;3.08;;;3.07;;
50345;SDS011;36248;37.258;-121.918;2022-08-21T03:54:39;3.10;;;3.09;;
50345;SDS011;36248;37.258;-121.918;2022-08-21T03:57:09;2.88;;;2.86;;
50345;SDS011;36248;37.258;-121.918;2022-08-21T03:59:39;2.87;;;2.85;;
50345;SDS011;36248;37.258;-121.918;2022-08-21T04:02:08;2.83;;;2.81;;
50345;SDS011;36248;37.258;-121.918;2022-08-21T04:04:39;3.30;;;3.28;;
50345;SDS011;36248;37.258;-121.918;2022-08-21T04:07:11;3.23;;;3.22;;
50345;SDS011;36248;37.258;-121.918;2022-08-21T04:09:44;3.42;;;3.39;;
50345;SDS011;36248;37.258;-121.918;2022-08-21T04:12:14;3.35;;;3.34;;
50345;SDS011;36248;37.258;-121.918;2022-08-21T04:14:44;3.36;;;3.35;;
50345;SDS011;36248;37.258;-121.918;2022-08-21T04:17:14;3.03;;;3.02;;
50345;SDS011;36248;37.258;-121.918;2022-08-21T04:19:44;3.28;;;3.28;;
50345;SDS011;36248;37.258;-121.918;2022-08-21T04:22:17;2.96;;;2.95;;
50345;SDS011;36248;37.258;-121.918;2022-08-21T04:24:46;2.82;;;2.82;;
50345;SDS011;36248;37.258;-121.918;2022-08-21T04:27:16;3.00;;;3.00;;
50345;SDS011;36248;37.258;-121.918;2022-08-21T04:29:45;3.27;;;3.25;;
50345;SDS011;36248;37.258;-121.918;2022-08-21T04:32:21;3.07;;;3.04;;
50345;SDS011;36248;37.258;-121.918;2022-08-21T04:34:56;2.93;;;2.93;;
50345;SDS011;36248;37.258;-121.918;2022-08-21T04:37:29;3.18;;;3.18;;
50345;SDS011;36248;37.258;-121.918;2022-08-21T04:40:00;3.92;;;3.92;;
50345;SDS011;36248;37.258;-121.918;2022-08-21T04:42:29;3.03;;;3.03;;
50345;SDS011;36248;37.258;-121.918;2022-08-21T04:44:59;3.02;;;3.02;;
50345;SDS011;36248;37.258;-121.918;2022-08-21T04:47:29;2.99;;;2.98;;
50345;SDS011;36248;37.258;-121.918;2022-08-21T04:49:58;2.73;;;2.73;;
50345;SDS011;36248;37.258;-121.918;2022-08-21T04:52:31;3.07;;;3.06;;
50345;SDS011;36248;37.258;-121.918;2022-08-21T04:55:00;2.86;;;2.86;;
50345;SDS011;36248;37.258;-121.918;2022-08-21T04:57:30;3.01;;;3.00;;
50345;SDS011;36248;37.258;-121.918;2022-08-21T05:00:00;3.01;;;3.01;;
50345;SDS011;36248;37.258;-121.918;2022-08-21T05:02:31;3.27;;;3.25;;
50345;SDS011;36248;37.258;-121.918;2022-08-21T05:05:01;3.70;;;3.65;;
50345;SDS011;36248;37.258;-121.918;2022-08-21T05:07:34;3.54;;;3.52;;
50345;SDS011;36248;37.258;-121.918;2022-08-21T05:10:04;3.58;;;3.52;;
50345;SDS011;36248;37.258;-121.918;2022-08-21T05:12:34;3.70;;;3.64;;
50345;SDS011;36248;37.258;-121.918;2022-08-21T05:15:06;3.34;;;3.32;;
50345;SDS011;36248;37.258;-121.918;2022-08-21T05:17:37;4.00;;;3.98;;
50345;SDS011;36248;37.258;-121.918;2022-08-21T05:20:07;3.61;;;3.60;;
50345;SDS011;36248;37.258;-121.918;2022-08-21T05:22:40;3.39;;;3.37;;
50345;SDS011;36248;37.258;-121.918;2022-08-21T05:25:09;3.55;;;3.51;;
50345;SDS011;36248;37.258;-121.918;2022-08-21T05:27:39;3.41;;;3.39;;
50345;SDS011;36248;37.258;-121.918;2022-08-21T05:30:10;3.47;;;3.47;;
50345;SDS011;36248;37.258;-121.918;2022-08-21T05:32:40;3.35;;;3.34;;
50345;SDS011;36248;37.258;-121.918;2022-08-21T05:35:09;3.52;;;3.52;;
50345;SDS011;36248;37.258;-121.918;2022-08-21T05:37:41;3.41;;;3.38;;
50345;SDS011;36248;37.258;-121.918;2022-08-21T05:40:12;3.53;;;3.49;;
50345;SDS011;36248;37.258;-121.918;2022-08-21T05:42:42;3.75;;;3.68;;
50345;SDS011;36248;37.258;-121.918;2022-08-21T05:45:12;3.52;;;3.50;;
50345;SDS011;36248;37.258;-121.918;2022-08-21T05:47:41;3.48;;;3.45;;
50345;SDS011;36248;37.258;-121.918;2022-08-21T05:50:11;3.27;;;3.25;;
50345;SDS011;36248;37.258;-121.918;2022-08-21T05:52:43;3.24;;;3.20;;
50345;SDS011;36248;37.258;-121.918;2022-08-21T05:55:13;3.28;;;3.25;;
50345;SDS011;36248;37.258;-121.918;2022-08-21T05:57:43;3.29;;;3.28;;
50345;SDS011;36248;37.258;-121.918;2022-08-21T06:00:13;3.37;;;3.37;;
50345;SDS011;36248;37.258;-121.918;2022-08-21T06:02:43;3.21;;;3.21;;
50345;SDS011;36248;37.258;-121.918;2022-08-21T06:05:13;3.45;;;3.44;;
50345;SDS011;36248;37.258;-121.918;2022-08-21T06:07:45;3.31;;;3.30;;
50345;SDS011;36248;37.258;-121.918;2022-08-21T06:10:15;3.42;;;3.41;;
50345;SDS011;36248;37.258;-121.918;2022-08-21T06:12:45;3.60;;;3.59;;
50345;SDS011;36248;37.258;-121.918;2022-08-21T06:15:15;3.46;;;3.46;;
50345;SDS011;36248;37.258;-121.918;2022-08-21T06:17:45;3.58;;;3.58;;
50345;SDS011;36248;37.258;-121.918;2022-08-21T06:20:15;3.58;;;3.58;;
50345;SDS011;36248;37.258;-121.918;2022-08-21T06:22:47;3.61;;;3.61;;
50345;SDS011;36248;37.258;-121.918;2022-08-21T06:25:17;3.51;;;3.51;;
50345;SDS011;36248;37.258;-121.918;2022-08-21T06:27:46;3.43;;;3.43;;
50345;SDS011;36248;37.258;-121.918;2022-08-21T06:30:16;3.68;;;3.66;;
50345;SDS011;36248;37.258;-121.918;2022-08-21T06:32:46;3.80;;;3.79;;
50345;SDS011;36248;37.258;-121.918;2022-08-21T06:35:15;3.59;;;3.57;;
50345;SDS011;36248;37.258;-121.918;2022-08-21T06:37:48;3.58;;;3.56;;
50345;SDS011;36248;37.258;-121.918;2022-08-21T06:40:17;3.68;;;3.66;;
50345;SDS011;36248;37.258;-121.918;2022-08-21T06:42:47;4.14;;;4.14;;
50345;SDS011;36248;37.258;-121.918;2022-08-21T06:45:17;3.80;;;3.80;;
50345;SDS011;36248;37.258;-121.918;2022-08-21T06:47:50;3.74;;;3.74;;
50345;SDS011;36248;37.258;-121.918;2022-08-21T06:50:19;3.83;;;3.83;;
50345;SDS011;36248;37.258;-121.918;2022-08-21T06:52:57;4.05;;;4.03;;
50345;SDS011;36248;37.258;-121.918;2022-08-21T06:55:27;3.75;;;3.73;;
50345;SDS011;36248;37.258;-121.918;2022-08-21T06:57:57;3.75;;;3.72;;
50345;SDS011;36248;37.258;-121.918;2022-08-21T07:00:27;3.86;;;3.84;;
50345;SDS011;36248;37.258;-121.918;2022-08-21T07:02:56;4.17;;;4.16;;
50345;SDS011;36248;37.258;-121.918;2022-08-21T07:05:26;3.84;;;3.84;;
50345;SDS011;36248;37.258;-121.918;2022-08-21T07:08:00;3.90;;;3.90;;
50345;SDS011;36248;37.258;-121.918;2022-08-21T07:10:30;4.16;;;4.16;;
50345;SDS011;36248;37.258;-121.918;2022-08-21T07:13:00;3.94;;;3.94;;
50345;SDS011;36248;37.258;-121.918;2022-08-21T07:15:29;3.83;;;3.82;;
50345;SDS011;36248;37.258;-121.918;2022-08-21T07:17:59;3.84;;;3.81;;
50345;SDS011;36248;37.258;-121.918;2022-08-21T07:20:29;4.04;;;4.02;;
50345;SDS011;36248;37.258;-121.918;2022-08-21T07:23:03;4.12;;;4.10;;
50345;SDS011;36248;37.258;-121.918;2022-08-21T07:25:35;3.96;;;3.93;;
50345;SDS011;36248;37.258;-121.918;2022-08-21T07:28:04;4.06;;;4.05;;
50345;SDS011;36248;37.258;-121.918;2022-08-21T07:30:33;4.00;;;3.98;;
50345;SDS011;36248;37.258;-121.918;2022-08-21T07:33:03;3.96;;;3.93;;
50345;SDS011;36248;37.258;-121.918;2022-08-21T07:35:32;4.12;;;4.08;;
50345;SDS011;36248;37.258;-121.918;2022-08-21T07:38:05;4.06;;;4.03;;
50345;SDS011;36248;37.258;-121.918;2022-08-21T07:40:34;4.00;;;3.96;;
50345;SDS011;36248;37.258;-121.918;2022-08-21T07:43:04;4.29;;;4.28;;
50345;SDS011;36248;37.258;-121.918;2022-08-21T07:45:34;4.25;;;4.19;;
50345;SDS011;36248;37.258;-121.918;2022-08-21T07:48:04;4.51;;;4.44;;
50345;SDS011;36248;37.258;-121.918;2022-08-21T07:50:33;4.19;;;4.12;;
50345;SDS011;36248;37.258;-121.918;2022-08-21T07:53:04;4.21;;;4.16;;
50345;SDS011;36248;37.258;-121.918;2022-08-21T07:55:34;3.92;;;3.90;;
50345;SDS011;36248;37.258;-121.918;2022-08-21T07:58:04;3.80;;;3.78;;
50345;SDS011;36248;37.258;-121.918;2022-08-21T08:00:34;4.11;;;4.07;;
50345;SDS011;36248;37.258;-121.918;2022-08-21T08:03:03;4.03;;;4.02;;
50345;SDS011;36248;37.258;-121.918;2022-08-21T08:05:33;4.18;;;4.18;;
50345;SDS011;36248;37.258;-121.918;2022-08-21T08:08:07;3.91;;;3.90;;
50345;SDS011;36248;37.258;-121.918;2022-08-21T08:10:37;4.13;;;4.12;;
50345;SDS011;36248;37.258;-121.918;2022-08-21T08:13:07;4.48;;;4.44;;
50345;SDS011;36248;37.258;-121.918;2022-08-21T08:15:37;4.16;;;4.14;;
50345;SDS011;36248;37.258;-121.918;2022-08-21T08:18:06;4.58;;;4.54;;
50345;SDS011;36248;37.258;-121.918;2022-08-21T08:20:35;4.83;;;4.68;;
50345;SDS011;36248;37.258;-121.918;2022-08-21T08:23:08;4.74;;;4.61;;
50345;SDS011;36248;37.258;-121.918;2022-08-21T08:25:38;4.50;;;4.40;;
50345;SDS011;36248;37.258;-121.918;2022-08-21T08:28:08;4.58;;;4.50;;
50345;SDS011;36248;37.258;-121.918;2022-08-21T08:30:38;4.37;;;4.28;;
50345;SDS011;36248;37.258;-121.918;2022-08-21T08:33:08;4.36;;;4.28;;
50345;SDS011;36248;37.258;-121.918;2022-08-21T08:35:38;4.51;;;4.45;;
50345;SDS011;36248;37.258;-121.918;2022-08-21T08:38:10;4.34;;;4.32;;
50345;SDS011;36248;37.258;-121.918;2022-08-21T08:40:45;4.26;;;4.23;;
50345;SDS011;36248;37.258;-121.918;2022-08-21T08:43:20;4.43;;;4.36;;
50345;SDS011;36248;37.258;-121.918;2022-08-21T08:45:50;4.38;;;4.33;;
50345;SDS011;36248;37.258;-121.918;2022-08-21T08:48:30;4.22;;;4.16;;
50345;SDS011;36248;37.258;-121.918;2022-08-21T08:51:08;4.54;;;4.47;;
50345;SDS011;36248;37.258;-121.918;2022-08-21T08:53:49;4.15;;;4.10;;
50345;SDS011;36248;37.258;-121.918;2022-08-21T08:56:22;4.47;;;4.42;;
50345;SDS011;36248;37.258;-121.918;2022-08-21T08:58:58;4.47;;;4.42;;
50345;SDS011;36248;37.258;-121.918;2022-08-21T09:01:32;4.56;;;4.46;;
50345;SDS011;36248;37.258;-121.918;2022-08-21T09:04:03;4.75;;;4.66;;
50345;SDS011;36248;37.258;-121.918;2022-08-21T09:09:31;4.95;;;4.85;;
50345;SDS011;36248;37.258;-121.918;2022-08-21T09:12:09;4.65;;;4.55;;
50345;SDS011;36248;37.258;-121.918;2022-08-21T09:14:47;5.00;;;4.89;;
50345;SDS011;36248;37.258;-121.918;2022-08-21T09:17:31;4.69;;;4.60;;
50345;SDS011;36248;37.258;-121.918;2022-08-21T09:20:11;4.65;;;4.60;;
50345;SDS011;36248;37.258;-121.918;2022-08-21T09:22:50;4.97;;;4.86;;
50345;SDS011;36248;37.258;-121.918;2022-08-21T09:25:32;4.83;;;4.73;;
50345;SDS011;36248;37.258;-121.918;2022-08-21T09:28:08;4.86;;;4.79;;
50345;SDS011;36248;37.258;-121.918;2022-08-21T09:30:40;5.15;;;5.06;;
50345;SDS011;36248;37.258;-121.918;2022-08-21T09:33:11;5.23;;;5.11;;
50345;SDS011;36248;37.258;-121.918;2022-08-21T09:35:50;5.13;;;4.96;;
50345;SDS011;36248;37.258;-121.918;2022-08-21T09:38:27;4.74;;;4.61;;
50345;SDS011;36248;37.258;-121.918;2022-08-21T09:41:03;5.14;;;5.03;;
50345;SDS011;36248;37.258;-121.918;2022-08-21T09:43:36;5.20;;;5.13;;
50345;SDS011;36248;37.258;-121.918;2022-08-21T09:46:08;5.26;;;5.11;;
50345;SDS011;36248;37.258;-121.918;2022-08-21T09:48:43;5.25;;;5.05;;
50345;SDS011;36248;37.258;-121.918;2022-08-21T09:51:15;5.47;;;5.30;;
50345;SDS011;36248;37.258;-121.918;2022-08-21T09:53:47;5.36;;;5.26;;
50345;SDS011;36248;37.258;-121.918;2022-08-21T09:56:25;4.83;;;4.74;;
50345;SDS011;36248;37.258;-121.918;2022-08-21T09:59:14;5.37;;;5.15;;
50345;SDS011;36248;37.258;-121.918;2022-08-21T10:01:46;5.73;;;5.51;;
50345;SDS011;36248;37.258;-121.918;2022-08-21T10:04:21;5.59;;;5.33;;
50345;SDS011;36248;37.258;-121.918;2022-08-21T10:06:53;5.72;;;5.52;;
50345;SDS011;36248;37.258;-121.918;2022-08-21T10:09:22;5.42;;;5.21;;
50345;SDS011;36248;37.258;-121.918;2022-08-21T10:11:56;5.64;;;5.43;;
50345;SDS011;36248;37.258;-121.918;2022-08-21T10:14:41;5.27;;;5.09;;
50345;SDS011;36248;37.258;-121.918;2022-08-21T10:17:17;5.15;;;5.01;;
50345;SDS011;36248;37.258;-121.918;2022-08-21T10:19:56;4.96;;;4.89;;
50345;SDS011;36248;37.258;-121.918;2022-08-21T10:22:36;4.73;;;4.67;;
50345;SDS011;36248;37.258;-121.918;2022-08-21T10:25:12;4.63;;;4.60;;
50345;SDS011;36248;37.258;-121.918;2022-08-21T10:27:55;4.64;;;4.59;;
50345;SDS011;36248;37.258;-121.918;2022-08-21T10:30:33;4.70;;;4.64;;
50345;SDS011;36248;37.258;-121.918;2022-08-21T10:33:12;4.99;;;4.90;;
50345;SDS011;36248;37.258;-121.918;2022-08-21T10:35:52;5.05;;;4.89;;
50345;SDS011;36248;37.258;-121.918;2022-08-21T10:41:29;5.14;;;4.98;;
50345;SDS011;36248;37.258;-121.918;2022-08-21T10:44:14;5.22;;;5.08;;
50345;SDS011;36248;37.258;-121.918;2022-08-21T10:46:54;4.63;;;4.59;;
50345;SDS011;36248;37.258;-121.918;2022-08-21T10:49:38;5.00;;;4.93;;
50345;SDS011;36248;37.258;-121.918;2022-08-21T10:52:17;4.98;;;4.89;;
50345;SDS011;36248;37.258;-121.918;2022-08-21T10:55:01;5.16;;;5.07;;
50345;SDS011;36248;37.258;-121.918;2022-08-21T10:57:39;5.33;;;5.27;;
50345;SDS011;36248;37.258;-121.918;2022-08-21T11:00:16;5.14;;;5.11;;
50345;SDS011;36248;37.258;-121.918;2022-08-21T11:02:50;5.18;;;5.07;;
50345;SDS011;36248;37.258;-121.918;2022-08-21T11:05:29;5.19;;;5.10;;
50345;SDS011;36248;37.258;-121.918;2022-08-21T11:08:02;5.10;;;5.04;;
50345;SDS011;36248;37.258;-121.918;2022-08-21T11:10:37;5.14;;;5.11;;
50345;SDS011;36248;37.258;-121.918;2022-08-21T11:13:12;5.27;;;5.23;;
50345;SDS011;36248;37.258;-121.918;2022-08-21T11:15:50;5.30;;;5.25;;
50345;SDS011;36248;37.258;-121.918;2022-08-21T11:18:26;5.59;;;5.53;;
50345;SDS011;36248;37.258;-121.918;2022-08-21T11:21:08;5.68;;;5.56;;
50345;SDS011;36248;37.258;-121.918;2022-08-21T11:23:50;5.59;;;5.50;;
50345;SDS011;36248;37.258;-121.918;2022-08-21T11:26:30;5.61;;;5.52;;
50345;SDS011;36248;37.258;-121.918;2022-08-21T11:29:05;5.30;;;5.23;;
50345;SDS011;36248;37.258;-121.918;2022-08-21T11:31:47;5.34;;;5.22;;
50345;SDS011;36248;37.258;-121.918;2022-08-21T11:34:36;5.37;;;5.24;;
50345;SDS011;36248;37.258;-121.918;2022-08-21T11:37:17;5.42;;;5.28;;
50345;SDS011;36248;37.258;-121.918;2022-08-21T11:39:57;5.19;;;5.08;;
50345;SDS011;36248;37.258;-121.918;2022-08-21T11:42:33;5.21;;;5.12;;
50345;SDS011;36248;37.258;-121.918;2022-08-21T11:45:14;5.23;;;5.17;;
50345;SDS011;36248;37.258;-121.918;2022-08-21T11:47:58;5.35;;;5.22;;
50345;SDS011;36248;37.258;-121.918;2022-08-21T11:50:34;5.48;;;5.34;;
50345;SDS011;36248;37.258;-121.918;2022-08-21T11:53:09;5.45;;;5.38;;
50345;SDS011;36248;37.258;-121.918;2022-08-21T11:55:43;5.36;;;5.29;;
50345;SDS011;36248;37.258;-121.918;2022-08-21T11:58:17;5.51;;;5.40;;
50345;SDS011;36248;37.258;-121.918;2022-08-21T12:00:52;5.59;;;5.50;;
50345;SDS011;36248;37.258;-121.918;2022-08-21T12:03:27;5.73;;;5.60;;
50345;SDS011;36248;37.258;-121.918;2022-08-21T12:06:00;5.63;;;5.52;;
50345;SDS011;36248;37.258;-121.918;2022-08-21T12:08:33;6.09;;;5.95;;
50345;SDS011;36248;37.258;-121.918;2022-08-21T12:11:07;5.59;;;5.48;;
50345;SDS011;36248;37.258;-121.918;2022-08-21T12:13:39;5.54;;;5.44;;
50345;SDS011;36248;37.258;-121.918;2022-08-21T12:16:28;5.57;;;5.50;;
50345;SDS011;36248;37.258;-121.918;2022-08-21T12:19:06;5.64;;;5.57;;
50345;SDS011;36248;37.258;-121.918;2022-08-21T12:21:48;5.85;;;5.80;;
50345;SDS011;36248;37.258;-121.918;2022-08-21T12:24:30;5.80;;;5.76;;
50345;SDS011;36248;37.258;-121.918;2022-08-21T12:27:13;5.76;;;5.71;;
50345;SDS011;36248;37.258;-121.918;2022-08-21T12:29:52;5.70;;;5.63;;
50345;SDS011;36248;37.258;-121.918;2022-08-21T12:32:25;5.42;;;5.33;;
50345;SDS011;36248;37.258;-121.918;2022-08-21T12:35:01;5.09;;;5.05;;
50345;SDS011;36248;37.258;-121.918;2022-08-21T12:37:37;5.22;;;5.19;;
50345;SDS011;36248;37.258;-121.918;2022-08-21T12:40:10;5.40;;;5.35;;
50345;SDS011;36248;37.258;-121.918;2022-08-21T12:42:47;5.32;;;5.26;;
50345;SDS011;36248;37.258;-121.918;2022-08-21T12:45:22;5.26;;;5.19;;
50345;SDS011;36248;37.258;-121.918;2022-08-21T12:47:59;4.84;;;4.78;;
50345;SDS011;36248;37.258;-121.918;2022-08-21T12:50:37;4.97;;;4.95;;
50345;SDS011;36248;37.258;-121.918;2022-08-21T12:53:24;4.68;;;4.65;;
50345;SDS011;36248;37.258;-121.918;2022-08-21T12:55:57;4.80;;;4.78;;
50345;SDS011;36248;37.258;-121.918;2022-08-21T12:58:29;4.85;;;4.79;;
50345;SDS011;36248;37.258;-121.918;2022-08-21T13:01:01;4.78;;;4.72;;
50345;SDS011;36248;37.258;-121.918;2022-08-21T13:03:35;4.84;;;4.79;;
50345;SDS011;36248;37.258;-121.918;2022-08-21T13:06:12;4.98;;;4.94;;
50345;SDS011;36248;37.258;-121.918;2022-08-21T13:08:43;5.15;;;5.06;;
50345;SDS011;36248;37.258;-121.918;2022-08-21T13:11:16;5.16;;;5.09;;
50345;SDS011;36248;37.258;-121.918;2022-08-21T13:13:48;5.25;;;5.14;;
50345;SDS011;36248;37.258;-121.918;2022-08-21T13:16:20;5.18;;;5.08;;
50345;SDS011;36248;37.258;-121.918;2022-08-21T13:18:54;5.01;;;4.94;;
50345;SDS011;36248;37.258;-121.918;2022-08-21T13:21:32;4.81;;;4.80;;
50345;SDS011;36248;37.258;-121.918;2022-08-21T13:24:08;5.07;;;5.05;;
50345;SDS011;36248;37.258;-121.918;2022-08-21T13:26:42;5.09;;;5.00;;
50345;SDS011;36248;37.258;-121.918;2022-08-21T13:29:12;5.03;;;4.96;;
50345;SDS011;36248;37.258;-121.918;2022-08-21T13:31:49;4.57;;;4.54;;
50345;SDS011;36248;37.258;-121.918;2022-08-21T13:34:22;5.05;;;4.97;;
50345;SDS011;36248;37.258;-121.918;2022-08-21T13:36:58;5.23;;;5.14;;
50345;SDS011;36248;37.258;-121.918;2022-08-21T13:39:29;5.33;;;5.21;;
50345;SDS011;36248;37.258;-121.918;2022-08-21T13:41:59;5.39;;;5.19;;
50345;SDS011;36248;37.258;-121.918;2022-08-21T13:44:34;5.98;;;5.78;;
50345;SDS011;36248;37.258;-121.918;2022-08-21T13:47:05;5.49;;;5.39;;
50345;SDS011;36248;37.258;-121.918;2022-08-21T13:49:36;5.77;;;5.63;;
50345;SDS011;36248;37.258;-121.918;2022-08-21T13:52:15;5.37;;;5.26;;
50345;SDS011;36248;37.258;-121.918;2022-08-21T13:54:52;5.31;;;5.24;;
50345;SDS011;36248;37.258;-121.918;2022-08-21T13:57:27;5.24;;;5.18;;
50345;SDS011;36248;37.258;-121.918;2022-08-21T14:02:45;5.03;;;4.97;;
50345;SDS011;36248;37.258;-121.918;2022-08-21T14:05:20;5.16;;;5.05;;
50345;SDS011;36248;37.258;-121.918;2022-08-21T14:07:58;4.95;;;4.91;;
50345;SDS011;36248;37.258;-121.918;2022-08-21T14:10:35;4.87;;;4.81;;
50345;SDS011;36248;37.258;-121.918;2022-08-21T14:13:26;4.98;;;4.94;;
50345;SDS011;36248;37.258;-121.918;2022-08-21T14:16:11;4.76;;;4.71;;
50345;SDS011;36248;37.258;-121.918;2022-08-21T14:18:44;5.12;;;5.08;;
50345;SDS011;36248;37.258;-121.918;2022-08-21T14:21:23;5.44;;;5.35;;
50345;SDS011;36248;37.258;-121.918;2022-08-21T14:24:03;4.98;;;4.93;;
50345;SDS011;36248;37.258;-121.918;2022-08-21T14:26:36;5.33;;;5.26;;
50345;SDS011;36248;37.258;-121.918;2022-08-21T14:29:15;4.50;;;4.45;;
50345;SDS011;36248;37.258;-121.918;2022-08-21T14:31:49;4.74;;;4.74;;
50345;SDS011;36248;37.258;-121.918;2022-08-21T14:34:21;4.57;;;4.51;;
50345;SDS011;36248;37.258;-121.918;2022-08-21T14:36:53;4.02;;;4.00;;
50345;SDS011;36248;37.258;-121.918;2022-08-21T14:39:26;3.77;;;3.72;;
50345;SDS011;36248;37.258;-121.918;2022-08-21T14:41:56;3.87;;;3.81;;
50345;SDS011;36248;37.258;-121.918;2022-08-21T14:44:27;3.91;;;3.88;;
50345;SDS011;36248;37.258;-121.918;2022-08-21T14:46:58;3.95;;;3.94;;
50345;SDS011;36248;37.258;-121.918;2022-08-21T14:49:29;3.73;;;3.73;;